createdAt,value
2019-05-29T00:01:28.912Z,6.00
2019-05-29T00:04:10.232Z,7.10
2019-05-29T00:06:50.948Z,6.55
2019-05-29T00:09:31.637Z,6.47
2019-05-29T00:12:18.406Z,5.87
2019-05-29T00:14:55.311Z,5.75
2019-05-29T00:17:36.366Z,5.78
2019-05-29T00:20:16.777Z,5.95
2019-05-29T00:25:39.179Z,6.33
2019-05-29T00:31:09.897Z,5.37
2019-05-29T00:33:53.722Z,5.50
2019-05-29T00:44:52.155Z,4.95
2019-05-29T00:47:33.278Z,4.78
2019-05-29T00:50:14.165Z,4.55
2019-05-29T00:52:54.663Z,4.78
2019-05-29T00:55:35.030Z,4.45
2019-05-29T00:58:15.556Z,4.65
2019-05-29T01:00:56.155Z,3.87
2019-05-29T01:03:36.731Z,4.17
2019-05-29T01:06:18.117Z,4.05
2019-05-29T01:08:59.267Z,4.25
2019-05-29T01:11:39.578Z,4.22
2019-05-29T01:14:21.482Z,3.83
2019-05-29T01:17:02.389Z,4.05
2019-05-29T01:19:43.264Z,3.70
2019-05-29T01:22:24.663Z,3.80
2019-05-29T01:25:05.096Z,3.35
2019-05-29T01:27:45.856Z,3.30
2019-05-29T01:30:26.451Z,3.60
2019-05-29T01:33:07.135Z,3.47
2019-05-29T01:35:47.899Z,3.27
2019-05-29T01:38:29.095Z,3.22
2019-05-29T01:41:10.052Z,2.98
2019-05-29T01:43:50.391Z,3.60
2019-05-29T01:46:30.800Z,3.72
2019-05-29T01:49:11.558Z,3.47
2019-05-29T01:51:52.127Z,3.58
2019-05-29T01:54:33.144Z,3.98
2019-05-29T01:57:13.535Z,3.45
2019-05-29T01:59:53.967Z,3.87
2019-05-29T02:02:34.751Z,3.83
2019-05-29T02:05:16.017Z,4.50
2019-05-29T02:07:56.559Z,3.83
2019-05-29T02:10:37.419Z,3.92
2019-05-29T02:13:19.318Z,3.40
2019-05-29T02:16:00.650Z,4.10
2019-05-29T02:18:41.119Z,3.22
2019-05-29T02:21:22.365Z,3.90
2019-05-29T02:24:03.708Z,3.80
2019-05-29T02:26:44.223Z,3.47
2019-05-29T02:29:24.861Z,4.03
2019-05-29T02:32:05.419Z,3.58
2019-05-29T02:34:45.968Z,3.20
2019-05-29T02:37:26.608Z,3.30
2019-05-29T02:40:07.395Z,3.60
2019-05-29T02:42:48.331Z,3.25
2019-05-29T02:45:50.774Z,3.60
2019-05-29T02:48:12.151Z,3.75
2019-05-29T02:50:52.869Z,3.60
2019-05-29T02:53:33.552Z,3.52
2019-05-29T02:56:14.286Z,4.45
2019-05-29T02:58:55.298Z,4.10
2019-05-29T03:01:36.014Z,4.25
2019-05-29T03:04:17.894Z,3.67
2019-05-29T03:06:58.659Z,3.85
2019-05-29T03:09:39.742Z,3.60
2019-05-29T03:12:20.048Z,2.98
2019-05-29T03:15:00.798Z,3.12
2019-05-29T03:17:41.642Z,2.75
2019-05-29T03:20:23.859Z,2.67
2019-05-29T03:23:04.521Z,2.45
2019-05-29T03:25:45.175Z,2.83
2019-05-29T03:28:25.781Z,2.60
2019-05-29T03:31:06.257Z,2.87
2019-05-29T03:33:49.696Z,2.55
2019-05-29T03:36:37.611Z,2.98
2019-05-29T03:39:12.408Z,2.83
2019-05-29T03:41:53.232Z,3.02
2019-05-29T03:44:35.442Z,2.70
2019-05-29T03:47:16.265Z,2.22
2019-05-29T03:49:57.448Z,2.20
2019-05-29T03:52:38.809Z,2.12
2019-05-29T03:55:19.995Z,2.27
2019-05-29T03:58:00.888Z,2.55
2019-05-29T04:00:46.809Z,2.62
2019-05-29T04:03:24.580Z,2.17
2019-05-29T04:06:05.360Z,2.08
2019-05-29T04:08:46.044Z,2.10
2019-05-29T04:11:27.465Z,2.20
2019-05-29T04:14:08.253Z,2.45
2019-05-29T04:16:58.945Z,2.12
2019-05-29T04:19:32.654Z,2.15
2019-05-29T04:22:14.791Z,2.27
2019-05-29T04:24:55.575Z,1.95
2019-05-29T04:27:38.301Z,2.10
2019-05-29T04:30:18.515Z,2.60
2019-05-29T04:35:46.472Z,2.85
2019-05-29T04:41:16.779Z,2.33
2019-05-29T04:43:57.335Z,1.82
2019-05-29T04:46:38.419Z,2.50
2019-05-29T04:49:20.477Z,2.15
2019-05-29T04:52:00.992Z,2.33
2019-05-29T05:25:36.227Z,1.75
2019-05-29T05:28:17.811Z,1.80
2019-05-29T05:30:58.148Z,1.77
2019-05-29T05:33:38.912Z,1.50
2019-05-29T05:36:20.351Z,2.00
2019-05-29T05:39:00.847Z,1.80
2019-05-29T05:41:41.471Z,1.40
2019-05-29T05:44:22.022Z,1.35
2019-05-29T05:47:02.934Z,1.40
2019-05-29T05:49:44.113Z,1.37
2019-05-29T05:52:24.939Z,1.67
2019-05-29T05:55:05.800Z,1.80
2019-05-29T05:57:46.582Z,1.40
2019-05-29T06:00:26.940Z,1.45
2019-05-29T06:03:08.047Z,1.27
2019-05-29T06:05:48.553Z,1.45
2019-05-29T06:08:29.763Z,1.42
2019-05-29T06:11:10.338Z,1.15
2019-05-29T06:13:51.116Z,1.40
2019-05-29T06:16:32.861Z,1.50
2019-05-29T06:19:14.227Z,1.35
2019-05-29T06:21:55.163Z,1.17
2019-05-29T06:24:37.107Z,1.80
2019-05-29T06:27:17.456Z,1.25
2019-05-29T06:29:58.156Z,1.40
2019-05-29T06:32:39.456Z,1.60
2019-05-29T06:35:20.957Z,1.40
2019-05-29T06:38:01.407Z,1.30
2019-05-29T06:40:42.212Z,1.42
2019-05-29T06:43:22.855Z,1.55
2019-05-29T06:46:03.629Z,1.80
2019-05-29T06:54:26.282Z,1.32
2019-05-29T06:57:06.771Z,1.32
2019-05-29T06:59:48.834Z,1.40
2019-05-29T07:02:31.757Z,1.42
2019-05-29T07:05:12.299Z,1.30
2019-05-29T07:07:52.847Z,1.35
2019-05-29T07:10:33.449Z,1.45
2019-05-29T07:13:14.170Z,1.32
2019-05-29T07:15:54.732Z,1.55
2019-05-29T07:18:36.454Z,1.52
2019-05-29T07:21:17.351Z,1.92
2019-05-29T07:23:57.916Z,1.50
2019-05-29T07:26:38.918Z,1.40
2019-05-29T07:29:20.155Z,2.00
2019-05-29T07:32:01.107Z,1.50
2019-05-29T07:34:59.459Z,2.20
2019-05-29T07:37:24.750Z,2.15
2019-05-29T07:40:05.486Z,1.92
2019-05-29T07:42:53.287Z,1.87
2019-05-29T07:45:29.515Z,1.72
2019-05-29T07:48:10.440Z,1.92
2019-05-29T07:50:40.098Z,1.82
2019-05-29T07:53:08.732Z,1.80
2019-05-29T07:55:38.368Z,2.22
2019-05-29T07:58:07.118Z,1.50
2019-05-29T08:00:48.438Z,1.70
2019-05-29T08:03:05.919Z,2.05
2019-05-29T08:05:34.524Z,2.12
2019-05-29T08:08:03.047Z,2.15
2019-05-29T08:10:31.870Z,2.33
2019-05-29T08:13:00.409Z,2.40
2019-05-29T08:15:28.930Z,2.20
2019-05-29T08:17:57.775Z,1.90
2019-05-29T08:20:26.322Z,1.85
2019-05-29T08:22:54.855Z,2.10
2019-05-29T08:25:23.373Z,1.57
2019-05-29T08:27:52.230Z,2.05
2019-05-29T08:30:21.803Z,1.92
2019-05-29T08:32:51.274Z,1.80
2019-05-29T08:35:19.946Z,2.15
2019-05-29T08:37:49.124Z,1.80
2019-05-29T08:40:17.894Z,2.05
2019-05-29T08:42:47.420Z,1.87
2019-05-29T08:45:15.995Z,1.95
2019-05-29T08:47:45.558Z,2.37
2019-05-29T08:50:18.434Z,1.82
2019-05-29T08:52:44.476Z,2.00
2019-05-29T08:55:13.883Z,1.65
2019-05-29T08:57:42.699Z,1.98
2019-05-29T09:00:11.950Z,2.33
2019-05-29T09:02:40.506Z,1.85
2019-05-29T09:05:09.767Z,1.95
2019-05-29T09:07:38.780Z,1.50
2019-05-29T09:10:07.762Z,1.95
2019-05-29T09:12:36.374Z,1.85
2019-05-29T09:15:05.923Z,1.80
2019-05-29T09:17:34.907Z,1.60
2019-05-29T09:20:03.639Z,1.52
2019-05-29T09:22:32.484Z,2.27
2019-05-29T09:25:01.002Z,2.12
2019-05-29T09:27:29.534Z,1.25
2019-05-29T09:29:58.060Z,1.85
2019-05-29T09:32:48.733Z,2.42
2019-05-29T09:34:56.835Z,2.12
2019-05-29T09:37:25.634Z,2.27
2019-05-29T09:39:54.154Z,2.20
2019-05-29T09:42:23.739Z,2.20
2019-05-29T09:44:52.934Z,2.33
2019-05-29T09:47:22.190Z,1.87
2019-05-29T09:49:50.883Z,1.77
2019-05-29T09:52:19.411Z,1.82
2019-05-29T09:54:48.327Z,1.92
2019-05-29T09:57:16.876Z,1.60
2019-05-29T09:59:45.468Z,2.02
2019-05-29T10:02:14.037Z,2.08
2019-05-29T10:04:42.599Z,1.85
2019-05-29T10:07:11.123Z,1.40
2019-05-29T10:09:39.928Z,1.70
2019-05-29T10:12:08.716Z,1.57
2019-05-29T10:14:37.811Z,1.60
2019-05-29T10:17:11.287Z,1.62
2019-05-29T10:19:37.647Z,1.12
2019-05-29T10:22:06.190Z,1.00
2019-05-29T10:24:34.784Z,1.40
2019-05-29T10:27:05.289Z,1.17
2019-05-29T10:29:34.003Z,1.62
2019-05-29T10:32:02.584Z,1.15
2019-05-29T10:34:31.203Z,1.30
2019-05-29T10:36:59.744Z,1.37
2019-05-29T10:39:28.657Z,1.40
2019-05-29T10:41:57.219Z,1.00
2019-05-29T10:44:26.144Z,1.20
2019-05-29T10:46:56.452Z,1.47
2019-05-29T10:49:25.106Z,1.00
2019-05-29T10:52:12.814Z,1.02
2019-05-29T10:54:24.242Z,0.80
2019-05-29T10:56:53.073Z,1.10
2019-05-29T10:59:22.262Z,1.27
2019-05-29T11:01:51.458Z,1.45
2019-05-29T11:04:20.418Z,1.05
2019-05-29T11:06:50.150Z,0.88
2019-05-29T11:09:19.058Z,1.02
2019-05-29T11:11:48.465Z,1.02
2019-05-29T11:14:17.451Z,0.75
2019-05-29T11:16:46.930Z,1.02
2019-05-29T11:19:15.731Z,0.93
2019-05-29T11:21:44.956Z,1.20
2019-05-29T11:24:13.823Z,1.20
2019-05-29T11:26:42.779Z,1.00
2019-05-29T11:29:11.395Z,0.85
2019-05-29T11:31:40.203Z,1.20
2019-05-29T11:34:08.742Z,0.82
2019-05-29T11:36:37.370Z,0.98
2019-05-29T11:39:08.424Z,1.30
2019-05-29T11:41:37.025Z,1.17
2019-05-29T11:44:05.675Z,0.93
2019-05-29T11:46:34.612Z,1.22
2019-05-29T11:49:03.615Z,0.95
2019-05-29T11:51:32.455Z,1.07
2019-05-29T11:54:02.446Z,0.90
2019-05-29T11:56:31.610Z,0.95
2019-05-29T11:59:00.219Z,1.17
2019-05-29T12:01:29.171Z,1.00
2019-05-29T12:04:19.576Z,0.80
2019-05-29T12:06:28.491Z,0.82
2019-05-29T12:08:59.740Z,1.10
2019-05-29T12:11:28.851Z,1.05
2019-05-29T12:13:58.286Z,0.98
2019-05-29T12:16:27.512Z,1.20
2019-05-29T12:18:56.295Z,0.90
2019-05-29T12:21:25.218Z,0.93
2019-05-29T12:23:54.048Z,0.90
2019-05-29T12:26:23.455Z,0.80
2019-05-29T12:28:53.945Z,0.75
2019-05-29T12:31:22.910Z,1.00
2019-05-29T12:33:52.921Z,1.00
2019-05-29T12:36:21.906Z,0.70
2019-05-29T12:38:50.797Z,0.90
2019-05-29T12:41:20.011Z,0.57
2019-05-29T12:43:48.856Z,0.60
2019-05-29T12:46:17.473Z,0.60
2019-05-29T12:48:46.267Z,0.85
2019-05-29T12:51:15.103Z,0.65
2019-05-29T12:53:43.635Z,0.60
2019-05-29T12:56:12.504Z,0.88
2019-05-29T12:58:41.108Z,0.60
2019-05-29T13:01:10.232Z,0.75
2019-05-29T13:03:38.920Z,0.70
2019-05-29T13:06:08.038Z,0.53
2019-05-29T13:08:36.661Z,0.82
2019-05-29T13:11:05.239Z,0.78
2019-05-29T13:13:33.819Z,0.60
2019-05-29T13:16:03.077Z,0.60
2019-05-29T13:18:31.831Z,0.75
2019-05-29T13:21:01.037Z,0.50
2019-05-29T13:23:44.338Z,0.60
2019-05-29T13:26:01.449Z,0.75
2019-05-29T13:28:30.485Z,0.70
2019-05-29T13:30:59.771Z,0.50
2019-05-29T13:33:28.550Z,0.50
2019-05-29T13:35:58.025Z,0.60
2019-05-29T13:38:27.161Z,0.70
2019-05-29T13:40:56.256Z,0.42
2019-05-29T13:43:24.922Z,0.70
2019-05-29T13:45:53.494Z,0.70
2019-05-29T13:48:23.503Z,0.45
2019-05-29T13:50:52.731Z,0.40
2019-05-29T13:53:40.891Z,0.50
2019-05-29T13:56:28.963Z,0.50
2019-05-29T13:59:17.068Z,0.65
2019-05-29T14:02:06.693Z,0.50
2019-05-29T14:04:54.512Z,0.50
2019-05-29T14:07:42.599Z,0.50
2019-05-29T14:10:30.461Z,0.50
2019-05-29T14:13:18.320Z,0.47
2019-05-29T14:16:06.773Z,0.60
2019-05-29T14:18:56.112Z,0.68
2019-05-29T14:21:45.832Z,0.40
2019-05-29T14:24:33.708Z,0.72
2019-05-29T14:27:21.559Z,0.50
2019-05-29T14:30:10.491Z,0.70
2019-05-29T14:32:59.321Z,0.57
2019-05-29T14:35:47.187Z,0.60
2019-05-29T14:38:35.034Z,0.50
2019-05-29T14:41:16.058Z,0.55
2019-05-29T14:43:56.734Z,0.50
2019-05-29T14:46:37.335Z,0.50
2019-05-29T14:49:18.295Z,0.53
2019-05-29T14:51:59.233Z,0.50
2019-05-29T14:54:42.242Z,0.35
2019-05-29T14:57:26.200Z,0.45
2019-05-29T15:00:13.650Z,0.40
2019-05-29T15:02:47.963Z,0.40
2019-05-29T15:05:29.039Z,0.30
2019-05-29T15:08:10.087Z,0.50
2019-05-29T15:10:51.188Z,0.47
2019-05-29T15:13:32.162Z,0.47
2019-05-29T15:16:12.935Z,0.40
2019-05-29T15:18:54.371Z,0.30
2019-05-29T15:21:36.607Z,0.40
2019-05-29T15:24:17.480Z,0.42
2019-05-29T15:26:57.771Z,0.50
2019-05-29T15:29:38.065Z,0.68
2019-05-29T15:32:19.007Z,0.40
2019-05-29T15:34:59.403Z,0.30
2019-05-29T15:37:39.960Z,0.33
2019-05-29T15:43:02.696Z,0.50
2019-05-29T15:45:43.074Z,0.33
2019-05-29T15:48:23.634Z,0.20
2019-05-29T15:51:04.355Z,0.40
2019-05-29T15:53:44.873Z,0.23
2019-05-29T15:56:28.609Z,0.37
2019-05-29T16:01:56.504Z,0.40
2019-05-29T16:07:26.683Z,0.50
2019-05-29T16:12:56.539Z,0.35
2019-05-29T16:15:37.399Z,0.40
2019-05-29T16:18:27.126Z,0.40
2019-05-29T16:21:00.618Z,0.45
2019-05-29T16:23:41.407Z,0.50
2019-05-29T16:26:22.152Z,0.40
2019-05-29T16:29:03.403Z,0.50
2019-05-29T16:31:44.175Z,0.30
2019-05-29T16:34:24.565Z,0.33
2019-05-29T16:37:05.315Z,0.30
2019-05-29T16:39:45.863Z,0.30
2019-05-29T16:42:26.770Z,0.57
2019-05-29T16:45:07.643Z,0.42
2019-05-29T16:47:48.923Z,0.42
2019-05-29T16:50:29.591Z,0.33
2019-05-29T16:53:10.030Z,0.40
2019-05-29T16:55:53.912Z,0.30
2019-05-29T16:58:33.519Z,0.40
2019-05-29T17:01:15.159Z,0.50
2019-05-29T17:03:56.445Z,0.50
2019-05-29T17:06:37.104Z,0.45
2019-05-29T17:09:18.376Z,0.40
2019-05-29T17:11:58.813Z,0.40
2019-05-29T17:14:39.716Z,0.40
2019-05-29T17:17:20.766Z,0.40
2019-05-29T17:20:01.317Z,0.30
2019-05-29T17:22:42.070Z,0.40
2019-05-29T17:25:28.158Z,0.40
2019-05-29T17:28:05.551Z,0.35
2019-05-29T17:30:46.531Z,0.50
2019-05-29T17:33:26.857Z,0.50
2019-05-29T17:36:07.522Z,0.40
2019-05-29T17:38:48.674Z,0.60
2019-05-29T17:41:29.007Z,0.30
2019-05-29T17:44:09.507Z,0.78
2019-05-29T17:46:50.511Z,0.55
2019-05-29T17:49:34.662Z,0.40
2019-05-29T17:52:13.844Z,0.40
2019-05-29T17:54:54.519Z,0.60
2019-05-29T17:57:35.592Z,0.50
2019-05-29T18:00:18.042Z,0.60
2019-05-29T18:02:59.128Z,1.20
2019-05-29T18:05:39.842Z,1.25
2019-05-29T18:08:20.704Z,3.67
2019-05-29T18:11:02.027Z,1.12
2019-05-29T18:13:42.549Z,0.60
2019-05-29T18:16:23.618Z,0.47
2019-05-29T18:19:04.409Z,0.50
2019-05-29T18:21:45.440Z,0.40
2019-05-29T18:24:26.048Z,0.37
2019-05-29T18:27:07.376Z,0.68
2019-05-29T18:29:47.922Z,0.60
2019-05-29T18:32:29.305Z,0.40
2019-05-29T18:35:09.908Z,0.60
2019-05-29T18:37:50.761Z,0.40
2019-05-29T18:40:39.023Z,0.40
2019-05-29T18:43:26.883Z,0.30
2019-05-29T18:46:14.736Z,0.30
2019-05-29T18:49:02.683Z,0.45
2019-05-29T18:51:50.543Z,0.40
2019-05-29T18:54:38.636Z,0.60
2019-05-29T18:57:26.972Z,0.30
2019-05-29T19:03:11.192Z,0.50
2019-05-29T19:05:59.051Z,0.40
2019-05-29T19:08:46.915Z,0.30
2019-05-29T19:11:35.015Z,0.75
2019-05-29T19:14:24.060Z,0.75
2019-05-29T19:17:12.458Z,0.68
2019-05-29T19:20:00.567Z,0.70
2019-05-29T19:22:48.431Z,0.78
2019-05-29T19:25:36.507Z,0.75
2019-05-29T19:28:24.601Z,0.90
2019-05-29T19:31:13.947Z,0.80
2019-05-29T19:34:02.047Z,0.80
2019-05-29T19:36:49.887Z,0.85
2019-05-29T19:39:37.739Z,0.98
2019-05-29T19:42:18.215Z,0.95
2019-05-29T19:47:41.052Z,0.98
2019-05-29T19:50:21.667Z,1.40
2019-05-29T19:52:50.447Z,1.45
2019-05-29T19:55:19.412Z,1.87
2019-05-29T19:57:55.713Z,1.98
2019-05-29T20:00:18.571Z,1.80
2019-05-29T20:02:47.514Z,2.25
2019-05-29T20:05:16.072Z,1.50
2019-05-29T20:07:44.690Z,1.20
2019-05-29T20:10:13.572Z,1.00
2019-05-29T20:12:42.467Z,1.22
2019-05-29T20:15:11.035Z,1.40
2019-05-29T20:17:39.631Z,0.95
2019-05-29T20:20:08.931Z,1.00
2019-05-29T20:22:38.913Z,1.10
2019-05-29T20:25:07.718Z,1.15
2019-05-29T20:27:36.450Z,1.20
2019-05-29T20:30:05.254Z,1.10
2019-05-29T20:32:34.668Z,1.10
2019-05-29T20:35:03.322Z,0.88
2019-05-29T20:37:32.151Z,1.12
2019-05-29T20:40:00.747Z,0.82
2019-05-29T20:42:30.135Z,1.00
2019-05-29T20:44:59.046Z,0.95
2019-05-29T20:47:27.862Z,1.10
2019-05-29T20:49:56.691Z,0.80
2019-05-29T20:52:25.401Z,0.80
2019-05-29T20:54:57.636Z,1.10
2019-05-29T20:57:24.335Z,0.80
2019-05-29T20:59:53.522Z,0.70
2019-05-29T21:02:22.495Z,0.98
2019-05-29T21:04:51.456Z,0.80
2019-05-29T21:07:19.992Z,0.90
2019-05-29T21:09:48.903Z,0.88
2019-05-29T21:12:17.459Z,0.90
2019-05-29T21:14:46.407Z,1.10
2019-05-29T21:17:15.031Z,1.00
2019-05-29T21:19:44.680Z,0.88
2019-05-29T21:22:14.482Z,0.80
2019-05-29T21:24:49.536Z,0.98
2019-05-29T21:27:13.359Z,0.90
2019-05-29T21:29:43.338Z,0.90
2019-05-29T21:32:16.144Z,0.80
2019-05-29T21:34:44.678Z,0.70
2019-05-29T21:37:13.554Z,0.98
2019-05-29T21:39:42.449Z,1.22
2019-05-29T21:42:11.091Z,0.80
2019-05-29T21:44:40.664Z,0.80
2019-05-29T21:47:09.515Z,0.70
2019-05-29T21:49:38.920Z,0.90
2019-05-29T21:52:07.851Z,0.82
2019-05-29T21:54:37.314Z,1.00
2019-05-29T21:57:05.945Z,0.80
2019-05-29T21:59:35.123Z,0.80
2019-05-29T22:02:04.442Z,0.82
2019-05-29T22:04:33.150Z,1.30
2019-05-29T22:07:01.984Z,0.88
2019-05-29T22:09:30.635Z,0.95
2019-05-29T22:11:59.159Z,0.90
2019-05-29T22:14:27.960Z,0.90
2019-05-29T22:16:57.130Z,0.90
2019-05-29T22:19:26.098Z,1.00
2019-05-29T22:21:55.036Z,0.80
2019-05-29T22:24:23.831Z,0.93
2019-05-29T22:26:53.192Z,0.68
2019-05-29T22:29:21.746Z,0.95
2019-05-29T22:31:51.306Z,1.05
2019-05-29T22:34:20.171Z,1.00
2019-05-29T22:36:49.070Z,0.90
2019-05-29T22:39:17.899Z,1.15
2019-05-29T22:41:46.787Z,1.15
2019-05-29T22:44:15.310Z,1.30
2019-05-29T22:46:43.843Z,1.05
2019-05-29T22:49:12.383Z,1.20
2019-05-29T22:51:40.924Z,1.27
2019-05-29T22:54:09.447Z,1.10
2019-05-29T22:56:37.978Z,1.60
2019-05-29T22:59:06.498Z,2.52
2019-05-29T23:01:35.040Z,2.35
2019-05-29T23:04:03.567Z,2.20
2019-05-29T23:06:32.106Z,2.22
2019-05-29T23:09:00.999Z,2.15
2019-05-29T23:11:30.099Z,2.42
2019-05-29T23:13:58.887Z,2.37
2019-05-29T23:16:27.419Z,2.12
2019-05-29T23:18:56.483Z,1.90
2019-05-29T23:21:25.066Z,1.67
2019-05-29T23:23:53.939Z,1.67
2019-05-29T23:26:22.515Z,1.80
2019-05-29T23:28:52.716Z,1.40
2019-05-29T23:31:21.422Z,1.47
2019-05-29T23:33:49.952Z,1.22
2019-05-29T23:36:18.912Z,1.50
2019-05-29T23:38:47.435Z,1.37
2019-05-29T23:41:15.982Z,1.22
2019-05-29T23:43:44.511Z,1.70
2019-05-29T23:46:13.042Z,1.40
2019-05-29T23:48:41.571Z,1.30
2019-05-29T23:51:10.427Z,1.60
2019-05-29T23:53:38.963Z,1.62
2019-05-29T23:56:07.486Z,1.67
2019-05-29T23:58:36.315Z,1.52
